createdAt,value
2023-01-25T00:00:00.980Z,12.73
2023-01-25T00:03:03.162Z,9.90
2023-01-25T00:06:05.468Z,10.13
2023-01-25T00:09:07.668Z,10.18
2023-01-25T00:12:09.798Z,9.10
2023-01-25T00:15:12.163Z,11.32
2023-01-25T00:18:14.350Z,9.05
2023-01-25T00:21:19.277Z,9.98
2023-01-25T00:24:23.266Z,11.57
2023-01-25T00:27:25.548Z,8.88
2023-01-25T00:30:29.674Z,9.63
2023-01-25T00:33:37.815Z,9.07
2023-01-25T00:36:41.386Z,9.68
2023-01-25T00:39:43.675Z,9.25
2023-01-25T00:42:47.311Z,10.90
2023-01-25T00:45:49.476Z,9.13
2023-01-25T00:48:54.934Z,8.35
2023-01-25T00:51:58.092Z,10.63
2023-01-25T00:55:00.440Z,8.70
2023-01-25T00:58:02.653Z,9.68
2023-01-25T01:01:05.209Z,7.93
2023-01-25T01:04:08.127Z,8.27
2023-01-25T01:07:13.341Z,9.43
2023-01-25T01:10:15.718Z,10.05
2023-01-25T01:13:18.652Z,9.23
2023-01-25T01:16:20.837Z,8.57
2023-01-25T01:19:23.043Z,9.05
2023-01-25T01:22:25.372Z,9.23
2023-01-25T01:25:27.639Z,9.77
2023-01-25T01:28:30.853Z,9.13
2023-01-25T01:31:33.147Z,10.38
2023-01-25T01:34:44.957Z,9.45
2023-01-25T01:37:47.567Z,8.43
2023-01-25T01:40:50.578Z,8.55
2023-01-25T01:43:53.305Z,8.20
2023-01-25T01:46:58.560Z,8.18
2023-01-25T01:50:12.004Z,9.63
2023-01-25T01:53:14.357Z,8.20
2023-01-25T01:56:22.778Z,9.02
2023-01-25T01:59:39.491Z,8.27
2023-01-25T02:02:42.233Z,9.27
2023-01-25T02:05:57.266Z,8.23
2023-01-25T02:09:00.873Z,8.57
2023-01-25T02:12:04.806Z,8.60
2023-01-25T02:15:07.935Z,8.75
2023-01-25T02:18:11.530Z,13.20
2023-01-25T02:21:13.850Z,8.80
2023-01-25T02:24:25.385Z,9.40
2023-01-25T02:27:27.618Z,8.88
2023-01-25T02:30:30.047Z,9.77
2023-01-25T02:33:32.343Z,8.32
2023-01-25T02:36:35.338Z,9.55
2023-01-25T02:39:37.973Z,8.50
2023-01-25T02:42:43.922Z,8.02
2023-01-25T02:45:52.669Z,9.60
2023-01-25T02:48:56.802Z,8.35
2023-01-25T02:51:58.959Z,7.38
2023-01-25T02:55:01.129Z,8.70
2023-01-25T02:58:03.767Z,8.98
2023-01-25T03:01:06.220Z,8.68
2023-01-25T03:04:09.067Z,8.77
2023-01-25T03:07:11.450Z,9.65
2023-01-25T03:10:13.645Z,7.95
2023-01-25T03:13:16.073Z,9.30
2023-01-25T03:16:18.289Z,8.77
2023-01-25T03:19:20.590Z,8.90
2023-01-25T03:22:22.924Z,10.25
2023-01-25T03:25:25.555Z,8.57
2023-01-25T03:28:38.231Z,9.18
2023-01-25T03:31:40.533Z,9.07
2023-01-25T03:34:42.863Z,9.88
2023-01-25T03:37:45.500Z,8.70
2023-01-25T03:40:48.843Z,9.50
2023-01-25T03:43:51.108Z,10.23
2023-01-25T03:46:53.593Z,8.00
2023-01-25T03:49:56.390Z,9.23
2023-01-25T03:53:31.427Z,9.13
2023-01-25T03:56:42.425Z,7.80
2023-01-25T03:59:53.770Z,9.80
2023-01-25T04:02:56.104Z,9.45
2023-01-25T04:05:59.386Z,9.70
2023-01-25T04:09:04.310Z,8.82
2023-01-25T04:12:13.552Z,8.25
2023-01-25T04:15:15.886Z,8.70
2023-01-25T04:18:18.596Z,10.68
2023-01-25T04:21:20.848Z,9.00
2023-01-25T04:24:23.285Z,9.43
2023-01-25T04:27:25.606Z,9.13
2023-01-25T04:30:39.704Z,11.38
2023-01-25T04:33:42.269Z,9.82
2023-01-25T04:36:44.574Z,9.20
2023-01-25T04:39:46.832Z,8.77
2023-01-25T04:42:49.040Z,9.63
2023-01-25T04:45:52.500Z,10.70
2023-01-25T04:49:00.157Z,9.57
2023-01-25T04:52:02.793Z,9.02
2023-01-25T04:55:05.413Z,10.40
2023-01-25T04:58:13.507Z,9.70
2023-01-25T05:01:16.326Z,9.82
2023-01-25T05:04:18.644Z,9.02
2023-01-25T05:07:24.023Z,9.77
2023-01-25T05:10:26.858Z,10.43
2023-01-25T05:13:47.248Z,9.40
2023-01-25T05:16:56.949Z,9.48
2023-01-25T05:19:59.127Z,9.85
2023-01-25T05:23:01.594Z,10.95
2023-01-25T05:26:24.076Z,11.68
2023-01-25T05:29:37.221Z,9.77
2023-01-25T05:32:41.840Z,10.85
2023-01-25T05:35:44.378Z,9.75
2023-01-25T05:38:46.634Z,12.20
2023-01-25T05:41:49.650Z,10.65
2023-01-25T05:44:51.880Z,9.27
2023-01-25T05:47:56.094Z,10.82
2023-01-25T05:50:58.791Z,10.10
2023-01-25T05:54:01.268Z,11.43
2023-01-25T05:57:03.998Z,10.38
2023-01-25T06:00:07.436Z,10.65
2023-01-25T06:03:15.502Z,11.60
2023-01-25T06:06:18.920Z,10.82
2023-01-25T06:09:22.729Z,12.18
2023-01-25T06:12:26.981Z,11.20
2023-01-25T06:15:31.890Z,11.60
2023-01-25T06:18:54.028Z,13.00
2023-01-25T06:22:08.235Z,11.50
2023-01-25T06:25:10.799Z,12.85
2023-01-25T06:28:13.166Z,11.48
2023-01-25T06:31:17.578Z,11.68
2023-01-25T06:34:19.947Z,10.63
2023-01-25T06:37:23.081Z,11.18
2023-01-25T06:40:26.612Z,13.02
2023-01-25T06:43:29.509Z,10.98
2023-01-25T06:46:33.716Z,13.20
2023-01-25T06:49:35.885Z,10.10
2023-01-25T06:52:38.050Z,11.95
2023-01-25T06:55:40.220Z,11.68
2023-01-25T06:58:42.440Z,12.35
2023-01-25T07:01:44.627Z,12.45
2023-01-25T07:04:46.913Z,11.07
2023-01-25T07:07:49.037Z,11.75
2023-01-25T07:11:03.512Z,12.38
2023-01-25T07:14:06.343Z,12.32
2023-01-25T07:17:08.503Z,11.32
2023-01-25T07:20:11.247Z,10.93
2023-01-25T07:23:13.488Z,11.43
2023-01-25T07:26:18.805Z,13.00
2023-01-25T07:29:21.076Z,12.90
2023-01-25T07:32:23.303Z,11.27
2023-01-25T07:35:25.467Z,12.15
2023-01-25T07:38:27.827Z,11.65
2023-01-25T07:41:30.125Z,10.43
2023-01-25T07:44:32.296Z,11.73
2023-01-25T07:47:44.839Z,11.23
2023-01-25T07:50:49.735Z,10.98
2023-01-25T07:53:57.497Z,11.82
2023-01-25T07:56:59.723Z,10.88
2023-01-25T08:00:02.269Z,14.07
2023-01-25T08:03:15.691Z,14.48
2023-01-25T08:06:22.847Z,12.30
2023-01-25T08:09:25.018Z,12.48
2023-01-25T08:12:28.122Z,11.90
2023-01-25T08:15:30.291Z,10.60
2023-01-25T08:18:34.196Z,10.23
2023-01-25T08:21:38.106Z,12.32
2023-01-25T08:24:40.608Z,9.90
2023-01-25T08:27:42.993Z,10.65
2023-01-25T08:30:56.565Z,12.02
2023-01-25T08:34:00.589Z,11.05
2023-01-25T08:37:02.798Z,10.30
2023-01-25T08:40:05.911Z,11.57
2023-01-25T08:43:08.103Z,12.27
2023-01-25T08:46:10.953Z,11.80
2023-01-25T08:49:13.175Z,11.30
2023-01-25T08:52:15.336Z,13.15
2023-01-25T08:55:17.544Z,10.82
2023-01-25T08:58:22.071Z,11.57
2023-01-25T09:01:24.384Z,11.13
2023-01-25T09:04:28.587Z,11.98
2023-01-25T09:07:32.521Z,10.75
2023-01-25T09:10:35.127Z,11.40
2023-01-25T09:13:37.713Z,9.80
2023-01-25T09:16:39.949Z,11.80
2023-01-25T09:19:42.632Z,10.68
2023-01-25T09:22:44.811Z,11.82
2023-01-25T09:25:46.951Z,9.40
2023-01-25T09:28:51.154Z,11.00
2023-01-25T09:31:53.425Z,11.63
2023-01-25T09:35:16.047Z,9.65
2023-01-25T09:38:18.153Z,13.93
2023-01-25T09:41:48.390Z,9.20
2023-01-25T09:48:28.491Z,8.68
2023-01-25T09:51:45.349Z,11.10
2023-01-25T09:54:48.264Z,12.43
2023-01-25T09:57:54.097Z,12.73
2023-01-25T10:01:14.572Z,9.93
2023-01-25T10:04:30.485Z,12.48
2023-01-25T10:08:03.666Z,10.88
2023-01-25T10:11:19.886Z,11.20
2023-01-25T10:14:22.409Z,11.30
2023-01-25T10:17:38.602Z,10.18
2023-01-25T10:20:53.325Z,10.80
2023-01-25T10:24:32.706Z,10.70
2023-01-25T10:27:43.832Z,11.27
2023-01-25T10:30:54.422Z,13.40
2023-01-25T10:33:57.731Z,12.40
2023-01-25T10:37:11.580Z,12.82
2023-01-25T10:40:21.829Z,13.93
2023-01-25T10:43:24.736Z,10.88
2023-01-25T10:46:27.500Z,11.63
2023-01-25T10:49:51.393Z,10.88
2023-01-25T10:52:59.986Z,10.52
2023-01-25T10:56:11.386Z,10.18
2023-01-25T10:59:21.353Z,12.20
2023-01-25T11:02:35.927Z,13.57
2023-01-25T11:05:39.633Z,13.10
2023-01-25T11:08:43.400Z,12.52
2023-01-25T11:12:03.951Z,11.60
2023-01-25T11:15:24.759Z,12.38
2023-01-25T11:18:29.669Z,11.70
2023-01-25T11:21:35.571Z,12.27
2023-01-25T11:24:38.053Z,10.93
2023-01-25T11:27:40.164Z,16.95
2023-01-25T11:30:42.492Z,10.82
2023-01-25T11:33:44.808Z,12.23
2023-01-25T11:37:14.580Z,11.85
2023-01-25T11:40:23.284Z,11.52
2023-01-25T11:43:44.361Z,12.43
2023-01-25T11:47:11.169Z,11.40
2023-01-25T11:50:34.077Z,10.38
2023-01-25T11:53:54.836Z,11.98
2023-01-25T11:57:06.998Z,11.52
2023-01-25T12:00:39.728Z,12.90
2023-01-25T12:04:35.498Z,10.55
2023-01-25T12:07:55.688Z,9.43
2023-01-25T12:11:11.948Z,9.52
2023-01-25T12:14:44.221Z,11.88
2023-01-25T12:18:01.220Z,9.35
2023-01-25T12:21:31.348Z,11.13
2023-01-25T12:25:15.234Z,9.82
2023-01-25T12:28:20.733Z,11.18
2023-01-25T12:31:29.233Z,11.90
2023-01-25T12:34:41.647Z,10.32
2023-01-25T12:37:46.514Z,10.43
2023-01-25T12:41:00.254Z,11.07
2023-01-25T12:44:32.938Z,9.30
2023-01-25T12:48:00.062Z,10.88
2023-01-25T12:51:02.561Z,10.73
2023-01-25T12:54:31.315Z,9.60
2023-01-25T12:57:53.438Z,9.18
2023-01-25T13:01:14.399Z,9.18
2023-01-25T13:04:38.923Z,10.82
2023-01-25T13:07:44.918Z,8.35
2023-01-25T13:10:52.615Z,10.63
2023-01-25T13:14:17.996Z,11.50
2023-01-25T13:17:20.187Z,9.60
2023-01-25T13:20:40.570Z,10.57
2023-01-25T13:23:47.448Z,12.45
2023-01-25T13:26:55.468Z,8.93
2023-01-25T13:30:10.866Z,11.70
2023-01-25T13:33:33.265Z,11.73
2023-01-25T13:36:41.596Z,10.73
2023-01-25T13:39:54.691Z,9.88
2023-01-25T13:43:02.350Z,9.82
2023-01-25T13:46:06.792Z,10.93
2023-01-25T13:49:21.370Z,12.23
2023-01-25T13:52:25.950Z,11.35
2023-01-25T13:55:29.877Z,10.88
2023-01-25T13:58:44.910Z,9.57
2023-01-25T14:01:48.585Z,10.60
2023-01-25T14:04:51.927Z,11.95
2023-01-25T14:07:57.220Z,9.00
2023-01-25T14:10:59.910Z,12.50
2023-01-25T14:14:17.152Z,9.45
2023-01-25T14:17:22.225Z,10.50
2023-01-25T14:20:27.308Z,10.13
2023-01-25T14:23:30.585Z,10.10
2023-01-25T14:26:34.846Z,12.15
2023-01-25T14:33:04.302Z,9.65
2023-01-25T14:36:24.065Z,9.38
2023-01-25T14:39:29.536Z,10.77
2023-01-25T14:42:33.079Z,10.88
2023-01-25T14:45:35.326Z,12.57
2023-01-25T14:48:44.568Z,10.05
2023-01-25T14:51:50.848Z,9.38
2023-01-25T14:54:57.683Z,12.18
2023-01-25T14:58:01.664Z,11.93
2023-01-25T15:01:04.283Z,12.07
2023-01-25T15:04:12.616Z,10.00
2023-01-25T15:07:42.105Z,8.57
2023-01-25T15:10:56.418Z,11.20
2023-01-25T15:14:03.138Z,10.05
2023-01-25T15:17:05.325Z,11.02
2023-01-25T15:20:27.991Z,12.32
2023-01-25T15:23:30.474Z,11.93
2023-01-25T15:26:34.939Z,10.63
2023-01-25T15:29:38.733Z,10.35
2023-01-25T15:32:41.138Z,10.77
2023-01-25T15:35:44.156Z,9.60
2023-01-25T15:38:47.210Z,10.40
2023-01-25T15:41:49.479Z,10.55
2023-01-25T15:44:51.758Z,10.82
2023-01-25T15:47:54.047Z,10.15
2023-01-25T15:50:57.548Z,11.50
2023-01-25T15:54:00.167Z,10.30
2023-01-25T15:57:02.645Z,12.45
2023-01-25T16:00:06.715Z,10.70
2023-01-25T16:03:08.993Z,11.60
2023-01-25T16:06:31.275Z,10.32
2023-01-25T16:09:33.551Z,8.85
2023-01-25T16:12:36.800Z,11.15
2023-01-25T16:15:40.119Z,12.90
2023-01-25T16:18:42.611Z,11.95
2023-01-25T16:21:45.010Z,14.48
2023-01-25T16:24:47.781Z,11.68
2023-01-25T16:27:50.448Z,10.50
2023-01-25T16:30:52.762Z,12.45
2023-01-25T16:33:54.955Z,12.18
2023-01-25T16:36:59.883Z,9.80
2023-01-25T16:40:02.496Z,10.45
2023-01-25T16:43:04.835Z,11.27
2023-01-25T16:46:13.700Z,10.68
2023-01-25T16:49:26.735Z,12.25
2023-01-25T16:52:28.928Z,11.88
2023-01-25T16:55:31.167Z,11.15
2023-01-25T16:58:34.530Z,10.95
2023-01-25T17:01:38.605Z,11.05
2023-01-25T17:04:40.827Z,11.38
2023-01-25T17:07:43.017Z,11.82
2023-01-25T17:10:45.173Z,10.88
2023-01-25T17:13:52.013Z,13.32
2023-01-25T17:16:57.284Z,10.93
2023-01-25T17:19:59.480Z,10.32
2023-01-25T17:23:01.565Z,10.55
2023-01-25T17:26:06.032Z,11.57
2023-01-25T17:29:10.133Z,13.27
2023-01-25T17:32:12.357Z,12.88
2023-01-25T17:35:14.631Z,11.77
2023-01-25T17:38:18.785Z,11.85
2023-01-25T17:41:20.958Z,11.48
2023-01-25T17:44:24.739Z,11.50
2023-01-25T17:47:26.998Z,10.77
2023-01-25T17:50:29.166Z,11.52
2023-01-25T17:53:31.517Z,13.00
2023-01-25T17:56:33.925Z,14.20
2023-01-25T17:59:36.273Z,11.30
2023-01-25T18:02:38.515Z,15.43
2023-01-25T18:05:41.070Z,15.15
2023-01-25T18:08:45.497Z,14.05
2023-01-25T18:11:48.063Z,13.15
2023-01-25T18:14:50.227Z,15.63
2023-01-25T18:17:52.471Z,10.35
2023-01-25T18:21:03.512Z,14.30
2023-01-25T18:24:26.220Z,13.00
2023-01-25T18:27:29.354Z,12.25
2023-01-25T18:30:44.224Z,14.82
2023-01-25T18:33:46.432Z,13.68
2023-01-25T18:36:48.710Z,14.98
2023-01-25T18:39:52.986Z,16.75
2023-01-25T18:42:55.204Z,14.15
2023-01-25T18:45:59.580Z,15.13
2023-01-25T18:49:01.983Z,14.98
2023-01-25T18:52:11.481Z,18.08
2023-01-25T18:55:14.238Z,13.55
2023-01-25T18:58:16.400Z,20.60
2023-01-25T19:01:23.006Z,16.92
2023-01-25T19:04:25.207Z,15.23
2023-01-25T19:07:27.342Z,15.85
2023-01-25T19:10:29.529Z,17.50
2023-01-25T19:13:34.438Z,18.42
2023-01-25T19:16:36.597Z,17.13
2023-01-25T19:19:38.751Z,16.30
2023-01-25T19:22:40.991Z,17.08
2023-01-25T19:25:43.262Z,16.05
2023-01-25T19:28:46.877Z,14.32
2023-01-25T19:31:49.252Z,14.32
2023-01-25T19:34:51.668Z,16.80
2023-01-25T19:37:53.704Z,17.13
2023-01-25T19:40:55.960Z,16.13
2023-01-25T19:44:03.148Z,18.33
2023-01-25T19:47:05.378Z,18.20
2023-01-25T19:50:08.255Z,18.25
2023-01-25T19:53:10.786Z,17.50
2023-01-25T19:56:17.889Z,17.92
2023-01-25T19:59:25.507Z,21.02
2023-01-25T20:02:28.072Z,16.95
2023-01-25T20:05:30.355Z,20.80
2023-01-25T20:08:36.067Z,18.33
2023-01-25T20:11:38.637Z,20.73
2023-01-25T20:14:41.821Z,20.25
2023-01-25T20:17:44.788Z,19.92
2023-01-25T20:20:59.267Z,17.98
2023-01-25T20:24:04.983Z,21.10
2023-01-25T20:27:07.883Z,17.50
2023-01-25T20:30:11.036Z,19.90
2023-01-25T20:33:13.211Z,17.48
2023-01-25T20:36:15.868Z,20.50
2023-01-25T20:39:20.848Z,18.13
2023-01-25T20:42:22.952Z,20.92
2023-01-25T20:45:25.148Z,17.80
2023-01-25T20:48:28.795Z,19.33
2023-01-25T20:51:30.893Z,18.70
2023-01-25T20:54:33.165Z,18.33
2023-01-25T20:57:35.323Z,20.50
2023-01-25T21:00:37.936Z,17.70
2023-01-25T21:03:40.183Z,21.25
2023-01-25T21:06:43.047Z,22.65
2023-01-25T21:09:45.320Z,18.70
2023-01-25T21:12:47.523Z,20.52
2023-01-25T21:16:00.926Z,18.40
2023-01-25T21:19:06.038Z,21.33
2023-01-25T21:22:08.185Z,16.60
2023-01-25T21:25:12.713Z,18.05
2023-01-25T21:28:15.185Z,19.33
2023-01-25T21:31:24.767Z,21.77
2023-01-25T21:34:26.983Z,19.60
2023-01-25T21:37:29.470Z,21.60
2023-01-25T21:40:31.719Z,19.45
2023-01-25T21:43:54.248Z,19.55
2023-01-25T21:47:27.461Z,18.73
2023-01-25T21:50:37.830Z,15.35
2023-01-25T21:53:39.991Z,14.77
2023-01-25T21:56:42.367Z,16.65
2023-01-25T21:59:44.569Z,16.10
2023-01-25T22:02:46.843Z,16.27
2023-01-25T22:05:54.998Z,15.73
2023-01-25T22:08:57.424Z,17.10
2023-01-25T22:11:59.692Z,15.85
2023-01-25T22:15:02.130Z,17.38
2023-01-25T22:18:04.340Z,17.48
2023-01-25T22:21:15.140Z,15.18
2023-01-25T22:24:17.438Z,14.23
2023-01-25T22:27:46.263Z,12.00
2023-01-25T22:30:48.609Z,14.70
2023-01-25T22:33:51.948Z,14.07
2023-01-25T22:36:54.069Z,13.48
2023-01-25T22:39:58.542Z,14.80
2023-01-25T22:43:00.815Z,13.90
2023-01-25T22:46:06.132Z,13.32
2023-01-25T22:49:08.343Z,15.27
2023-01-25T22:52:10.547Z,15.73
2023-01-25T22:55:12.841Z,13.73
2023-01-25T22:58:15.069Z,12.65
2023-01-25T23:01:23.138Z,13.63
2023-01-25T23:04:25.540Z,14.00
2023-01-25T23:07:27.814Z,14.50
2023-01-25T23:10:30.032Z,15.25
2023-01-25T23:13:33.083Z,13.68
2023-01-25T23:16:36.138Z,12.77
2023-01-25T23:19:38.367Z,13.50
2023-01-25T23:22:40.981Z,14.07
2023-01-25T23:25:43.231Z,11.77
2023-01-25T23:28:53.346Z,11.57
2023-01-25T23:31:55.480Z,12.20
2023-01-25T23:34:57.796Z,15.07
2023-01-25T23:38:00.094Z,14.10
2023-01-25T23:41:02.259Z,11.25
2023-01-25T23:44:04.525Z,12.23
2023-01-25T23:47:06.734Z,12.95
2023-01-25T23:50:10.058Z,13.25
2023-01-25T23:53:12.525Z,10.82
2023-01-25T23:56:17.607Z,11.48
2023-01-25T23:59:20.027Z,10.32
